Time;durP1;ratioP1;P1;durP2;ratioP2;P2;SDS_P1;SDS_P2;PMS_P1;PMS_P2;Temp;Humidity;BMP_temperature;BMP_pressure;BME280_temperature;BME280_humidity;BME280_pressure;Samples;Min_cycle;Max_cycle;Signal;HPM_P1;HPM_P2
2021/08/26 00:07:33;;;;;;;5.73;5.13;;;14.00;99.90;;;;;;4981106;28;20200;-81
2021/08/26 00:10:06;;;;;;;6.40;5.57;;;14.00;99.90;;;;;;4962842;28;20176;-81
2021/08/26 00:12:32;;;;;;;6.63;5.47;;;14.00;99.90;;;;;;4961988;28;20230;-81
2021/08/26 00:14:59;;;;;;;5.70;5.17;;;14.00;99.90;;;;;;4979347;28;20214;-81
2021/08/26 00:17:26;;;;;;;6.30;5.70;;;14.00;99.90;;;;;;4979604;28;20200;-79
2021/08/26 00:19:53;;;;;;;6.37;5.70;;;14.00;99.90;;;;;;4979877;28;20204;-79
2021/08/26 00:22:19;;;;;;;6.50;5.80;;;14.00;99.90;;;;;;4963062;28;20259;-81
2021/08/26 00:24:45;;;;;;;6.37;5.60;;;13.90;99.90;;;;;;4980876;28;20167;-81
2021/08/26 00:27:11;;;;;;;6.17;5.43;;;13.90;99.90;;;;;;4979803;28;20192;-82
2021/08/26 00:29:37;;;;;;;6.53;5.87;;;13.80;99.90;;;;;;4979790;28;20251;-82
2021/08/26 00:32:03;;;;;;;8.73;6.07;;;13.80;99.90;;;;;;4979673;28;20259;-79
2021/08/26 00:34:28;;;;;;;7.63;5.90;;;13.80;99.90;;;;;;4979748;28;20176;-81
2021/08/26 00:36:57;;;;;;;6.27;5.67;;;13.70;99.90;;;;;;4990140;23;20216;-77
2021/08/26 00:39:23;;;;;;;6.17;5.43;;;13.70;99.90;;;;;;5001689;28;20239;-78
2021/08/26 00:41:49;;;;;;;6.30;5.70;;;13.50;99.90;;;;;;5002041;28;20215;-78
2021/08/26 00:44:15;;;;;;;6.53;5.93;;;13.50;99.90;;;;;;5001346;28;20171;-78
2021/08/26 00:46:41;;;;;;;9.17;5.80;;;13.40;99.90;;;;;;4999946;28;20215;-78
2021/08/26 00:49:17;;;;;;;5.50;5.00;;;13.50;99.90;;;;;;4981901;28;20172;-79
2021/08/26 00:51:44;;;;;;;6.37;5.70;;;13.50;99.90;;;;;;4981685;28;20191;-78
2021/08/26 00:54:09;;;;;;;6.13;5.53;;;13.50;99.90;;;;;;4982075;28;20173;-79
2021/08/26 00:56:36;;;;;;;7.20;5.57;;;13.50;99.90;;;;;;4964216;28;20226;-79
2021/08/26 00:59:04;;;;;;;6.50;5.90;;;13.40;99.90;;;;;;4981421;28;20168;-79
2021/08/26 01:01:45;;;;;;;6.00;5.50;;;13.40;99.90;;;;;;4964520;28;20578;-79
2021/08/26 01:04:35;;;;;;;5.83;5.33;;;13.40;99.90;;;;;;4981252;28;20160;-78
2021/08/26 01:07:18;;;;;;;6.60;4.83;;;13.30;99.90;;;;;;4981561;28;20200;-78
2021/08/26 01:09:49;;;;;;;5.90;5.30;;;13.30;99.90;;;;;;4981590;28;20216;-79
2021/08/26 01:12:19;;;;;;;5.77;4.93;;;13.30;99.90;;;;;;4964447;28;20176;-78
2021/08/26 01:14:49;;;;;;;5.83;5.30;;;13.20;99.90;;;;;;4963564;28;20202;-76
2021/08/26 01:17:22;;;;;;;6.53;5.93;;;15.30;99.90;;;;;;4980961;28;20554;-78
2021/08/26 01:19:52;;;;;;;7.60;6.20;;;13.20;99.90;;;;;;4963546;28;20198;-78
2021/08/26 01:22:20;;;;;;;6.50;5.90;;;13.20;99.90;;;;;;4963166;28;20200;-78
2021/08/26 01:24:53;;;;;;;5.97;5.47;;;13.20;99.90;;;;;;4963752;28;20211;-78
2021/08/26 01:27:19;;;;;;;7.33;5.77;;;13.20;99.90;;;;;;4980127;28;20587;-79
2021/08/26 01:29:47;;;;;;;6.63;5.93;;;13.20;99.90;;;;;;4963788;28;20524;-79
2021/08/26 01:32:18;;;;;;;8.20;5.57;;;13.10;99.90;;;;;;4981213;28;20572;-78
2021/08/26 01:34:44;;;;;;;7.00;6.00;;;13.10;99.90;;;;;;4981124;28;20157;-79
2021/08/26 01:37:10;;;;;;;7.07;5.77;;;13.00;99.90;;;;;;4962117;28;20274;-79
2021/08/26 01:39:47;;;;;;;7.63;6.07;;;13.00;99.90;;;;;;4980050;28;20182;-78
2021/08/26 01:42:13;;;;;;;6.93;5.90;;;12.90;99.90;;;;;;4980340;28;20551;-78
2021/08/26 01:44:39;;;;;;;6.30;5.80;;;12.90;99.90;;;;;;4982224;28;20200;-79
2021/08/26 01:47:10;;;;;;;7.07;5.97;;;12.70;99.90;;;;;;4982251;28;20695;-78
2021/08/26 01:49:37;;;;;;;6.53;5.93;;;12.80;99.90;;;;;;4982788;28;20624;-79
2021/08/26 01:52:03;;;;;;;8.83;6.70;;;12.80;99.90;;;;;;4983067;28;20664;-79
2021/08/26 01:54:29;;;;;;;6.53;5.67;;;12.80;99.90;;;;;;4983801;28;20277;-78
2021/08/26 01:56:55;;;;;;;8.20;5.60;;;12.80;99.90;;;;;;4983441;28;20220;-78
2021/08/26 01:59:21;;;;;;;6.63;5.70;;;12.90;99.90;;;;;;4983580;28;20180;-78
2021/08/26 02:01:46;;;;;;;6.80;5.87;;;12.90;99.90;;;;;;4983993;28;20284;-78
2021/08/26 02:04:12;;;;;;;6.27;5.77;;;12.90;99.90;;;;;;4984022;28;20185;-78
2021/08/26 02:06:38;;;;;;;6.70;6.00;;;12.90;99.90;;;;;;4982924;28;20181;-79
2021/08/26 02:09:03;;;;;;;7.03;6.07;;;12.90;99.90;;;;;;4982052;28;20195;-78
2021/08/26 02:11:29;;;;;;;7.20;5.77;;;12.90;99.90;;;;;;4982517;28;20181;-78
2021/08/26 02:13:55;;;;;;;6.57;5.97;;;12.90;99.90;;;;;;4982954;28;20180;-79
2021/08/26 02:16:20;;;;;;;12.07;6.23;;;13.00;99.90;;;;;;4982717;28;20184;-78
2021/08/26 02:18:46;;;;;;;6.90;6.20;;;12.90;99.90;;;;;;4983173;28;20258;-79
2021/08/26 02:21:12;;;;;;;9.20;5.87;;;12.80;99.90;;;;;;4983563;28;20204;-79
2021/08/26 02:23:38;;;;;;;6.03;5.53;;;12.80;99.90;;;;;;4983400;28;20195;-79
2021/08/26 02:26:03;;;;;;;7.53;6.67;;;12.80;99.90;;;;;;4982539;28;20177;-79
2021/08/26 02:28:29;;;;;;;6.23;5.63;;;12.70;99.90;;;;;;4983821;28;20204;-78
2021/08/26 02:30:55;;;;;;;6.87;6.27;;;12.70;99.90;;;;;;4983387;28;20250;-79
2021/08/26 02:33:20;;;;;;;5.70;5.20;;;12.60;99.90;;;;;;5003029;28;20187;-78
2021/08/26 02:35:47;;;;;;;10.03;6.37;;;12.60;99.90;;;;;;5001666;28;20199;-78
2021/08/26 02:38:13;;;;;;;7.20;5.47;;;12.50;99.90;;;;;;4983640;28;20219;-78
2021/08/26 02:40:38;;;;;;;7.33;6.30;;;12.60;99.90;;;;;;4984527;28;20179;-79
2021/08/26 02:43:04;;;;;;;6.27;5.60;;;12.60;99.90;;;;;;5002099;28;20303;-78
2021/08/26 02:45:33;;;;;;;8.60;6.80;;;12.60;99.90;;;;;;5001789;28;20268;-76
2021/08/26 02:47:58;;;;;;;5.93;5.33;;;12.60;99.90;;;;;;5001249;28;20706;-79
2021/08/26 02:50:24;;;;;;;6.53;5.93;;;12.60;99.90;;;;;;4984102;28;20176;-78
2021/08/26 02:52:56;;;;;;;7.60;6.03;;;12.60;99.90;;;;;;5001966;28;20206;-75
2021/08/26 02:55:21;;;;;;;6.03;5.50;;;12.60;99.90;;;;;;5001856;28;20176;-78
2021/08/26 02:57:47;;;;;;;6.20;5.60;;;12.60;99.90;;;;;;5000458;28;20210;-78
2021/08/26 03:00:13;;;;;;;6.93;6.10;;;12.60;99.90;;;;;;5001172;28;20187;-78
2021/08/26 03:02:38;;;;;;;6.83;6.20;;;12.60;99.90;;;;;;5001434;28;20274;-79
2021/08/26 03:05:04;;;;;;;6.13;5.53;;;12.50;99.90;;;;;;5001994;28;20203;-78
2021/08/26 03:07:30;;;;;;;6.30;5.70;;;12.50;99.90;;;;;;5001234;28;20188;-78
2021/08/26 03:09:55;;;;;;;6.30;5.70;;;12.50;99.90;;;;;;5001214;28;20651;-78
2021/08/26 03:12:21;;;;;;;7.30;6.53;;;12.50;99.90;;;;;;4983855;28;20211;-78
2021/08/26 03:14:47;;;;;;;6.37;5.63;;;12.50;99.90;;;;;;5001451;28;20176;-79
2021/08/26 03:17:12;;;;;;;6.63;5.97;;;12.50;99.90;;;;;;5000698;28;20203;-78
2021/08/26 03:19:38;;;;;;;6.77;6.07;;;12.40;99.90;;;;;;4983692;28;20194;-78
2021/08/26 03:22:04;;;;;;;7.03;6.33;;;12.30;99.90;;;;;;5000877;28;20614;-78
2021/08/26 03:24:29;;;;;;;7.07;6.47;;;12.30;99.90;;;;;;4983026;28;20175;-79
2021/08/26 03:26:55;;;;;;;6.30;5.70;;;12.20;99.90;;;;;;5000572;28;20674;-78
2021/08/26 03:29:20;;;;;;;6.27;5.67;;;12.30;99.90;;;;;;5000281;28;20182;-78
2021/08/26 03:31:46;;;;;;;6.70;6.10;;;12.30;99.90;;;;;;4999807;28;20255;-78
2021/08/26 03:34:12;;;;;;;6.70;5.60;;;12.30;99.90;;;;;;4982990;28;20180;-78
2021/08/26 03:36:37;;;;;;;6.70;6.07;;;12.30;99.90;;;;;;4999799;28;20184;-77
2021/08/26 03:39:03;;;;;;;8.23;5.83;;;12.20;99.90;;;;;;4999792;28;20195;-78
2021/08/26 03:41:28;;;;;;;6.43;5.83;;;12.00;99.90;;;;;;4999916;28;20690;-79
2021/08/26 03:43:57;;;;;;;7.73;6.30;;;12.30;99.90;;;;;;5000038;28;20226;-74
2021/08/26 03:46:23;;;;;;;7.17;6.33;;;12.30;99.90;;;;;;5000406;28;20179;-79
2021/08/26 03:48:48;;;;;;;7.30;6.60;;;12.30;99.90;;;;;;5000148;28;20195;-79
2021/08/26 03:51:14;;;;;;;6.50;5.90;;;12.20;99.90;;;;;;4996583;28;20701;-78
2021/08/26 03:53:39;;;;;;;7.13;6.43;;;12.20;99.90;;;;;;4999960;28;20226;-78
2021/08/26 03:56:06;;;;;;;6.77;6.07;;;12.20;99.90;;;;;;4999588;28;20179;-79
2021/08/26 03:58:33;;;;;;;11.77;6.63;;;12.20;99.90;;;;;;4999682;28;20207;-78
2021/08/26 04:01:02;;;;;;;7.03;6.40;;;12.20;99.90;;;;;;4999496;28;20176;-78
2021/08/26 04:03:27;;;;;;;7.63;6.07;;;12.20;99.90;;;;;;4999491;28;20168;-78
2021/08/26 04:05:53;;;;;;;8.47;6.27;;;12.30;99.90;;;;;;4999260;28;20172;-78
2021/08/26 04:08:19;;;;;;;7.43;6.13;;;12.00;99.90;;;;;;4998898;28;20195;-78
2021/08/26 04:10:44;;;;;;;11.60;6.67;;;11.50;99.90;;;;;;4999110;28;20222;-78
2021/08/26 04:13:11;;;;;;;7.27;6.50;;;;;;;;;;4998929;28;20681;-78
2021/08/26 04:15:36;;;;;;;7.90;7.03;;;12.10;99.90;;;;;;4998958;28;20172;-78
2021/08/26 04:18:02;;;;;;;9.93;6.53;;;12.10;99.90;;;;;;4998748;28;20667;-78
2021/08/26 04:20:27;;;;;;;6.83;6.10;;;12.10;99.90;;;;;;4981744;28;20180;-78
2021/08/26 04:22:53;;;;;;;7.40;6.70;;;12.10;99.90;;;;;;4998551;28;20203;-78
2021/08/26 04:25:19;;;;;;;7.10;6.50;;;12.10;99.90;;;;;;4999580;28;20176;-78
2021/08/26 04:27:44;;;;;;;7.17;6.53;;;12.10;99.90;;;;;;4998885;28;20227;-78
2021/08/26 04:30:11;;;;;;;7.73;7.03;;;12.00;99.90;;;;;;4998935;28;20234;-78
2021/08/26 04:32:36;;;;;;;7.13;6.43;;;12.00;99.90;;;;;;4981259;28;20191;-78
2021/08/26 04:35:02;;;;;;;6.83;6.23;;;12.00;99.90;;;;;;4998331;28;20180;-78
2021/08/26 04:37:29;;;;;;;7.00;6.40;;;11.90;99.90;;;;;;4998903;28;20214;-78
2021/08/26 04:39:55;;;;;;;8.87;5.90;;;11.90;99.90;;;;;;4999032;28;20248;-78
2021/08/26 04:42:20;;;;;;;7.43;6.03;;;11.90;99.90;;;;;;4988040;28;20667;-78
2021/08/26 04:44:46;;;;;;;8.83;6.10;;;11.80;99.90;;;;;;4979650;28;20172;-79
2021/08/26 04:47:12;;;;;;;6.93;6.33;;;11.80;99.90;;;;;;4978354;28;20576;-78
2021/08/26 04:49:37;;;;;;;7.10;6.40;;;11.80;99.90;;;;;;4977541;28;20579;-78
2021/08/26 04:52:04;;;;;;;7.23;6.53;;;11.80;99.90;;;;;;4978544;28;20191;-79
2021/08/26 04:54:29;;;;;;;7.40;6.10;;;11.80;99.90;;;;;;4981931;28;20639;-79
2021/08/26 04:56:55;;;;;;;6.43;5.77;;;11.70;99.90;;;;;;4983790;28;20206;-78
2021/08/26 04:59:21;;;;;;;6.87;6.00;;;11.70;99.90;;;;;;4986566;28;20189;-79
2021/08/26 05:01:47;;;;;;;7.27;6.50;;;11.70;99.90;;;;;;4986465;28;20243;-79
2021/08/26 05:04:12;;;;;;;7.33;6.30;;;11.70;99.90;;;;;;4985669;28;20177;-79
2021/08/26 05:06:38;;;;;;;6.47;5.77;;;11.80;99.90;;;;;;4986249;28;20172;-79
2021/08/26 05:09:04;;;;;;;7.20;6.50;;;11.80;99.90;;;;;;4985141;28;20181;-79
2021/08/26 05:11:30;;;;;;;15.50;7.17;;;11.90;99.90;;;;;;4985432;28;20177;-78
2021/08/26 05:13:55;;;;;;;7.40;6.57;;;11.90;99.90;;;;;;4981685;28;20181;-79
2021/08/26 05:16:21;;;;;;;7.30;6.70;;;12.00;99.90;;;;;;4982900;28;20242;-79
2021/08/26 05:18:47;;;;;;;8.00;7.20;;;12.00;99.90;;;;;;4982419;28;20726;-78
2021/08/26 05:21:12;;;;;;;10.60;6.77;;;12.00;99.90;;;;;;4981965;28;20184;-79
2021/08/26 05:23:38;;;;;;;8.23;7.37;;;12.00;99.90;;;;;;4984176;28;20548;-79
2021/08/26 05:26:04;;;;;;;7.57;6.87;;;12.10;99.90;;;;;;4985731;28;20179;-79
2021/08/26 05:28:30;;;;;;;8.00;7.20;;;12.10;99.90;;;;;;4983814;28;20533;-79
2021/08/26 05:30:55;;;;;;;8.50;7.10;;;12.20;99.90;;;;;;4982365;28;20184;-78
2021/08/26 05:33:24;;;;;;;7.73;7.07;;;12.30;99.90;;;;;;4981894;28;20231;-76
2021/08/26 05:35:50;;;;;;;7.97;7.27;;;12.30;99.90;;;;;;4986723;28;20188;-79
2021/08/26 05:38:15;;;;;;;8.47;7.77;;;12.40;99.90;;;;;;4986904;28;20212;-79
2021/08/26 05:40:41;;;;;;;8.20;7.50;;;12.50;99.90;;;;;;4984935;28;20288;-79
2021/08/26 05:43:06;;;;;;;8.17;7.37;;;12.50;99.90;;;;;;4990021;28;20203;-80
2021/08/26 05:45:32;;;;;;;8.60;7.53;;;12.60;99.90;;;;;;5005451;28;20197;-79
2021/08/26 05:47:58;;;;;;;9.60;8.07;;;12.60;99.90;;;;;;5005913;28;20233;-79
2021/08/26 05:50:24;;;;;;;7.87;7.27;;;12.60;99.90;;;;;;4988942;28;20187;-79
2021/08/26 05:52:51;;;;;;;7.77;6.97;;;12.60;99.90;;;;;;4982490;28;20187;-79
2021/08/26 05:55:18;;;;;;;8.23;7.53;;;12.80;99.90;;;;;;4996451;28;20203;-77
2021/08/26 05:57:43;;;;;;;8.40;7.60;;;12.80;99.90;;;;;;4977046;28;20200;-77
2021/08/26 06:00:09;;;;;;;12.93;8.03;;;12.80;99.90;;;;;;4978574;28;20182;-79
2021/08/26 06:02:35;;;;;;;8.77;7.93;;;12.90;99.90;;;;;;4994966;28;20218;-77
2021/08/26 06:05:01;;;;;;;8.43;7.73;;;13.00;99.90;;;;;;4979236;28;20651;-79
2021/08/26 06:07:26;;;;;;;10.07;7.67;;;13.00;99.90;;;;;;4983003;28;20238;-79
2021/08/26 06:09:52;;;;;;;8.57;7.80;;;13.00;99.90;;;;;;4979956;28;20266;-78
2021/08/26 06:12:18;;;;;;;8.53;7.73;;;13.10;99.90;;;;;;4993665;28;20260;-77
2021/08/26 06:14:43;;;;;;;7.87;7.17;;;13.20;99.90;;;;;;4979376;28;20226;-77
2021/08/26 06:17:09;;;;;;;8.17;7.37;;;13.10;99.90;;;;;;5003492;28;20196;-80
2021/08/26 06:19:35;;;;;;;8.57;7.60;;;13.10;99.90;;;;;;5008021;28;20176;-80
2021/08/26 06:22:00;;;;;;;8.27;7.00;;;13.20;99.90;;;;;;4990324;28;20207;-80
2021/08/26 06:24:26;;;;;;;8.50;7.60;;;13.30;99.90;;;;;;4991066;28;20236;-80
2021/08/26 06:26:52;;;;;;;9.10;7.40;;;13.40;99.90;;;;;;5008169;28;20196;-80
2021/08/26 06:29:19;;;;;;;8.60;7.90;;;13.50;99.90;;;;;;5009197;28;20191;-79
2021/08/26 06:31:47;;;;;;;10.47;8.67;;;13.40;99.90;;;;;;4992762;28;20172;-79
2021/08/26 06:34:12;;;;;;;10.70;9.60;;;13.40;99.90;;;;;;5011670;28;20175;-78
2021/08/26 06:36:41;;;;;;;10.23;9.20;;;13.50;99.90;;;;;;4992734;28;20175;-78
2021/08/26 06:39:06;;;;;;;11.17;9.53;;;13.50;99.90;;;;;;5007170;28;20191;-81
2021/08/26 06:41:32;;;;;;;15.60;9.93;;;13.60;99.90;;;;;;5001391;28;20198;-80
2021/08/26 06:43:58;;;;;;;9.53;8.70;;;13.60;99.90;;;;;;4993353;28;20206;-79
2021/08/26 06:46:23;;;;;;;10.63;9.10;;;13.70;99.90;;;;;;4993566;28;20168;-80
2021/08/26 06:48:50;;;;;;;8.37;7.67;;;13.80;99.90;;;;;;4993953;28;20188;-79
2021/08/26 06:51:16;;;;;;;9.30;8.43;;;13.90;99.90;;;;;;5011531;28;20582;-79
2021/08/26 06:53:42;;;;;;;11.13;10.03;;;14.00;99.90;;;;;;5011234;28;20252;-79
2021/08/26 06:56:08;;;;;;;10.57;9.57;;;14.00;99.90;;;;;;5012190;28;20179;-79
2021/08/26 06:58:33;;;;;;;10.63;9.70;;;14.10;99.90;;;;;;4993184;28;20580;-79
2021/08/26 07:00:59;;;;;;;9.83;8.83;;;14.30;99.90;;;;;;5008325;28;20231;-79
2021/08/26 07:03:25;;;;;;;10.07;9.27;;;14.30;99.90;;;;;;4990546;28;20212;-79
2021/08/26 07:05:50;;;;;;;13.73;9.70;;;14.40;99.90;;;;;;4991499;28;20669;-78
2021/08/26 07:08:16;;;;;;;10.93;9.53;;;14.50;99.90;;;;;;5009300;28;20782;-79
2021/08/26 07:10:42;;;;;;;10.47;9.60;;;14.60;99.90;;;;;;5010120;28;20191;-79
2021/08/26 07:13:07;;;;;;;10.93;9.83;;;14.80;99.90;;;;;;5009859;28;20212;-79
2021/08/26 07:15:33;;;;;;;10.37;9.43;;;14.90;99.90;;;;;;5008009;28;20698;-79
2021/08/26 07:17:58;;;;;;;11.17;10.27;;;14.90;99.90;;;;;;4991168;28;20675;-79
2021/08/26 07:20:24;;;;;;;11.37;10.47;;;15.00;99.90;;;;;;5006666;28;20179;-80
2021/08/26 07:22:50;;;;;;;11.33;10.23;;;15.00;99.90;;;;;;4995071;28;20203;-79
2021/08/26 07:25:15;;;;;;;11.87;10.77;;;15.00;99.90;;;;;;5012026;28;20632;-79
2021/08/26 07:27:41;;;;;;;12.77;11.67;;;14.90;99.90;;;;;;5011717;28;20202;-78
2021/08/26 07:30:07;;;;;;;11.23;10.27;;;14.80;99.90;;;;;;5012848;28;20164;-80
2021/08/26 07:32:33;;;;;;;11.73;10.53;;;14.80;99.90;;;;;;5011449;28;20172;-79
2021/08/26 07:34:59;;;;;;;11.53;10.53;;;15.00;99.90;;;;;;4994503;28;20651;-79
2021/08/26 07:37:25;;;;;;;12.47;11.20;;;15.10;99.90;;;;;;5011045;28;20259;-79
2021/08/26 07:39:50;;;;;;;12.50;11.40;;;15.20;99.90;;;;;;4994234;28;20176;-78
2021/08/26 07:42:16;;;;;;;12.20;11.17;;;15.30;99.90;;;;;;5010339;28;20274;-79
2021/08/26 07:44:42;;;;;;;11.50;10.50;;;15.30;99.90;;;;;;5010452;28;20255;-80
2021/08/26 07:47:08;;;;;;;10.80;9.90;;;15.40;99.90;;;;;;5011796;28;20186;-79
2021/08/26 07:49:33;;;;;;;11.07;10.07;;;15.40;99.90;;;;;;4994384;28;20194;-79
2021/08/26 07:51:59;;;;;;;11.20;10.30;;;15.50;99.90;;;;;;5007390;28;20187;-79
2021/08/26 07:54:25;;;;;;;10.40;9.53;;;15.50;99.90;;;;;;4994009;28;20183;-79
2021/08/26 07:56:50;;;;;;;10.77;9.63;;;15.60;99.90;;;;;;4990780;28;20203;-78
2021/08/26 07:59:16;;;;;;;10.57;9.60;;;15.70;99.90;;;;;;4991476;28;20210;-79
2021/08/26 08:01:42;;;;;;;10.83;9.80;;;15.70;99.90;;;;;;4990089;28;20251;-79
2021/08/26 08:04:07;;;;;;;11.50;10.40;;;15.70;99.90;;;;;;5008649;28;20635;-79
2021/08/26 08:06:33;;;;;;;11.87;10.77;;;15.80;99.90;;;;;;5008939;28;20231;-77
2021/08/26 08:08:59;;;;;;;10.37;9.50;;;15.90;99.90;;;;;;4974649;28;20173;-79
2021/08/26 08:11:24;;;;;;;11.23;10.13;;;16.00;99.90;;;;;;5009315;28;20674;-79
2021/08/26 08:13:51;;;;;;;11.67;10.67;;;16.00;99.90;;;;;;4991569;28;20206;-79
2021/08/26 08:16:18;;;;;;;10.67;9.57;;;16.10;99.90;;;;;;5009631;28;20178;-79
2021/08/26 08:18:44;;;;;;;10.53;8.93;;;16.20;99.90;;;;;;4992133;28;20255;-79
2021/08/26 08:21:09;;;;;;;10.97;9.97;;;16.40;99.90;;;;;;5008866;28;20681;-79
2021/08/26 08:23:35;;;;;;;10.10;9.20;;;16.50;99.90;;;;;;4991750;28;20171;-79
2021/08/26 08:26:01;;;;;;;11.17;8.67;;;16.50;99.90;;;;;;4990856;28;20547;-79
2021/08/26 08:28:28;;;;;;;10.17;8.70;;;16.60;99.90;;;;;;4992232;28;20279;-79
2021/08/26 08:30:54;;;;;;;10.77;8.33;;;16.70;99.90;;;;;;5010374;28;20658;-79
2021/08/26 08:33:19;;;;;;;11.60;8.93;;;16.80;99.90;;;;;;4992379;28;20206;-78
2021/08/26 08:35:45;;;;;;;10.00;9.10;;;17.00;99.90;;;;;;4990385;28;20528;-78
2021/08/26 08:38:14;;;;;;;9.07;8.27;;;17.00;99.90;;;;;;5007612;28;20214;-78
2021/08/26 08:40:40;;;;;;;9.77;8.87;;;17.00;99.90;;;;;;4988486;28;20186;-78
2021/08/26 08:43:06;;;;;;;13.57;8.77;;;17.10;99.90;;;;;;5007666;28;20202;-79
2021/08/26 08:45:31;;;;;;;12.40;9.47;;;17.20;99.90;;;;;;5007167;28;20547;-79
2021/08/26 08:47:58;;;;;;;9.07;8.23;;;17.30;99.90;;;;;;4990202;28;20188;-78
2021/08/26 08:50:25;;;;;;;9.33;8.47;;;17.40;99.90;;;;;;4991730;28;20179;-78
2021/08/26 08:52:52;;;;;;;9.13;8.20;;;17.40;99.90;;;;;;4989968;28;20533;-78
2021/08/26 08:55:19;;;;;;;9.53;8.60;;;17.40;99.90;;;;;;5007755;28;20195;-79
2021/08/26 08:57:45;;;;;;;9.90;9.00;;;17.40;99.90;;;;;;5007659;28;20194;-79
2021/08/26 09:00:13;;;;;;;8.73;7.77;;;17.50;99.90;;;;;;5008535;28;20174;-79
2021/08/26 09:02:40;;;;;;;9.70;8.70;;;17.50;99.90;;;;;;5008995;28;20687;-79
2021/08/26 09:05:06;;;;;;;10.63;8.50;;;17.60;99.90;;;;;;4990937;28;20186;-79
2021/08/26 09:07:35;;;;;;;9.53;7.80;;;17.70;99.90;;;;;;5009006;28;20192;-79
2021/08/26 09:10:02;;;;;;;8.73;7.80;;;17.70;99.90;;;;;;4989154;28;20194;-79
2021/08/26 09:12:49;;;;;;;8.50;7.70;;;17.80;99.90;;;;;;5007221;28;20239;-79
2021/08/26 09:15:29;;;;;;;8.23;7.33;;;17.80;99.90;;;;;;5007409;28;20239;-78
2021/08/26 09:18:15;;;;;;;9.43;7.33;;;17.90;99.90;;;;;;4989028;28;20210;-78
2021/08/26 09:20:54;;;;;;;8.40;7.70;;;18.10;99.90;;;;;;5007978;28;20218;-78
2021/08/26 09:23:22;;;;;;;7.70;7.00;;;18.10;99.90;;;;;;5006408;28;20198;-79
2021/08/26 09:25:48;;;;;;;7.33;6.57;;;18.10;99.90;;;;;;5007740;28;20261;-79
2021/08/26 09:28:33;;;;;;;9.27;6.70;;;18.10;99.90;;;;;;4989993;28;20175;-78
2021/08/26 09:31:09;;;;;;;7.70;7.00;;;18.30;99.90;;;;;;5006658;28;20514;-78
2021/08/26 09:33:58;;;;;;;7.40;6.80;;;18.40;99.90;;;;;;5006749;28;20167;-79
2021/08/26 09:36:33;;;;;;;7.97;7.17;;;18.50;99.90;;;;;;5007884;28;20175;-78
2021/08/26 09:39:07;;;;;;;8.93;7.57;;;18.60;99.90;;;;;;4989425;28;20192;-79
2021/08/26 09:41:41;;;;;;;8.13;7.43;;;18.70;99.90;;;;;;5007645;28;20265;-78
2021/08/26 09:44:23;;;;;;;9.60;8.63;;;18.70;99.90;;;;;;5007015;28;20172;-80
2021/08/26 09:46:51;;;;;;;8.87;7.83;;;18.70;99.90;;;;;;5007600;28;20785;-78
2021/08/26 09:49:23;;;;;;;8.33;7.53;;;18.70;99.90;;;;;;4990430;28;20172;-78
2021/08/26 09:52:08;;;;;;;8.50;7.70;;;18.90;99.90;;;;;;5008283;28;20160;-79
2021/08/26 09:54:41;;;;;;;7.57;6.67;;;19.00;99.90;;;;;;5007819;28;20182;-80
2021/08/26 09:57:28;;;;;;;6.87;6.17;;;19.00;99.90;;;;;;4985929;28;20272;-79
2021/08/26 10:00:01;;;;;;;11.50;7.47;;;19.10;99.90;;;;;;4988285;28;20223;-79
2021/08/26 10:02:28;;;;;;;7.60;7.00;;;19.20;99.90;;;;;;4987844;28;20196;-78
2021/08/26 10:04:55;;;;;;;7.70;7.10;;;19.30;99.90;;;;;;4988078;28;20236;-79
2021/08/26 10:07:24;;;;;;;7.47;6.67;;;19.30;99.90;;;;;;4990219;28;20751;-78
2021/08/26 10:09:50;;;;;;;10.07;7.40;;;19.20;99.90;;;;;;4992934;28;20172;-79
2021/08/26 10:12:16;;;;;;;7.93;7.13;;;19.30;99.90;;;;;;4993981;28;20188;-79
2021/08/26 10:14:48;;;;;;;7.40;6.80;;;19.50;99.90;;;;;;4995166;28;20599;-79
2021/08/26 10:17:14;;;;;;;10.00;8.03;;;19.50;99.90;;;;;;4994952;28;20194;-79
2021/08/26 10:19:40;;;;;;;8.20;7.43;;;19.60;99.90;;;;;;4993985;28;20173;-80
2021/08/26 10:22:07;;;;;;;7.43;6.57;;;19.60;99.90;;;;;;4994259;28;20226;-79
2021/08/26 10:24:33;;;;;;;7.97;7.07;;;19.80;99.90;;;;;;4992287;28;20173;-79
2021/08/26 10:27:08;;;;;;;7.50;6.70;;;19.90;99.90;;;;;;4992457;28;20192;-79
2021/08/26 10:29:35;;;;;;;12.47;7.50;;;20.00;99.90;;;;;;4992826;28;20658;-79
2021/08/26 10:32:03;;;;;;;6.43;5.83;;;20.00;99.90;;;;;;4993730;28;20168;-79
2021/08/26 10:34:31;;;;;;;6.97;6.00;;;20.00;99.90;;;;;;4993013;28;20180;-79
2021/08/26 10:36:57;;;;;;;6.13;5.50;;;20.00;99.90;;;;;;4990602;28;20232;-79
2021/08/26 10:39:41;;;;;;;6.37;5.67;;;20.00;99.90;;;;;;4992808;28;20240;-79
2021/08/26 10:42:16;;;;;;;6.10;5.60;;;20.00;99.90;;;;;;4991769;28;20608;-79
2021/08/26 10:45:23;;;;;;;7.23;6.57;;;20.00;99.90;;;;;;4993047;28;20172;-79
2021/08/26 10:47:49;;;;;;;7.17;6.47;;;19.90;99.90;;;;;;4992122;28;20196;-80
2021/08/26 10:50:18;;;;;;;6.13;5.63;;;19.90;99.90;;;;;;4991612;28;20598;-79
2021/08/26 10:52:57;;;;;;;9.57;6.13;;;19.90;99.90;;;;;;4992038;28;20176;-80
2021/08/26 10:55:46;;;;;;;6.43;5.67;;;19.80;99.90;;;;;;4992693;28;20168;-80
2021/08/26 10:58:26;;;;;;;7.40;5.70;;;19.80;99.90;;;;;;4992720;28;20212;-79
2021/08/26 11:01:00;;;;;;;6.17;5.67;;;19.80;99.90;;;;;;4992331;28;20223;-79
2021/08/26 11:03:35;;;;;;;6.83;5.83;;;19.80;99.90;;;;;;4992504;28;20275;-79
2021/08/26 11:06:16;;;;;;;7.97;6.50;;;19.70;99.90;;;;;;4992307;28;20227;-80
2021/08/26 11:08:46;;;;;;;6.70;6.10;;;19.70;99.90;;;;;;4993455;28;20199;-79
2021/08/26 11:11:29;;;;;;;7.30;6.57;;;19.70;99.90;;;;;;4992927;28;20200;-79
2021/08/26 11:14:07;;;;;;;7.10;6.50;;;19.70;99.90;;;;;;4993083;28;20172;-79
2021/08/26 11:16:34;;;;;;;7.47;6.70;;;19.70;99.90;;;;;;4992905;28;20176;-80
2021/08/26 11:19:19;;;;;;;6.30;5.70;;;19.70;99.90;;;;;;4992132;28;20203;-79
2021/08/26 11:21:45;;;;;;;7.40;6.20;;;19.80;99.90;;;;;;4993465;28;20200;-80
2021/08/26 11:24:13;;;;;;;8.13;6.50;;;19.90;99.90;;;;;;4993114;28;20168;-79
2021/08/26 11:26:47;;;;;;;6.67;5.90;;;20.00;99.90;;;;;;4993106;28;20192;-80
2021/08/26 11:29:21;;;;;;;7.10;5.73;;;20.00;99.90;;;;;;4992837;28;20225;-80
2021/08/26 11:31:56;;;;;;;6.20;5.60;;;20.00;99.90;;;;;;4993020;28;20179;-80
2021/08/26 11:34:43;;;;;;;5.47;4.97;;;20.00;99.90;;;;;;4993470;28;20682;-80
2021/08/26 11:37:23;;;;;;;7.17;5.43;;;20.10;99.90;;;;;;4993068;28;20200;-80
2021/08/26 11:39:51;;;;;;;5.23;4.73;;;20.10;99.90;;;;;;4993359;28;20186;-80
2021/08/26 11:42:33;;;;;;;5.87;5.33;;;20.20;99.90;;;;;;4992897;28;20208;-79
2021/08/26 11:45:24;;;;;;;6.10;5.50;;;20.20;99.90;;;;;;4991978;28;20172;-78
2021/08/26 11:48:06;;;;;;;5.93;5.10;;;20.10;99.90;;;;;;4983835;28;20206;-79
2021/08/26 11:50:39;;;;;;;6.23;5.60;;;20.00;99.90;;;;;;4993948;28;20164;-78
2021/08/26 11:53:10;;;;;;;6.43;5.47;;;20.00;99.90;;;;;;4991659;28;20243;-80
2021/08/26 11:55:52;;;;;;;5.63;5.13;;;19.90;99.90;;;;;;4975850;28;20208;-80
2021/08/26 11:58:18;;;;;;;7.30;5.93;;;19.90;99.90;;;;;;5012900;23;20227;-80
2021/08/26 12:00:49;;;;;;;6.03;5.40;;;19.90;99.90;;;;;;5011647;28;20195;-79
2021/08/26 12:03:18;;;;;;;6.97;4.93;;;19.90;99.90;;;;;;4995007;28;20583;-80
2021/08/26 12:05:45;;;;;;;6.30;5.47;;;19.80;99.90;;;;;;5011259;28;20179;-80
2021/08/26 12:08:11;;;;;;;5.63;5.13;;;19.80;99.90;;;;;;5012479;28;20215;-79
2021/08/26 12:10:43;;;;;;;6.33;4.57;;;19.80;99.90;;;;;;5011058;28;20171;-80
2021/08/26 12:13:11;;;;;;;5.43;4.73;;;19.80;99.90;;;;;;5010145;28;20172;-79
2021/08/26 12:15:46;;;;;;;5.47;4.53;;;19.70;99.90;;;;;;5010510;28;20172;-80
2021/08/26 12:18:14;;;;;;;7.10;4.70;;;19.60;99.90;;;;;;5011301;28;20195;-80
2021/08/26 12:20:47;;;;;;;5.93;4.63;;;19.60;99.90;;;;;;5010698;28;20547;-80
2021/08/26 12:23:27;;;;;;;7.60;4.83;;;19.50;99.90;;;;;;5009490;28;20577;-79
2021/08/26 12:26:12;;;;;;;4.80;4.30;;;19.50;99.90;;;;;;5010873;28;20184;-80
2021/08/26 12:28:42;;;;;;;10.50;4.90;;;19.40;99.90;;;;;;5010615;28;20198;-80
2021/08/26 12:31:10;;;;;;;6.53;4.83;;;19.40;99.90;;;;;;5009787;28;20167;-80
2021/08/26 12:33:37;;;;;;;6.00;4.73;;;19.40;99.90;;;;;;5010669;28;20230;-80
2021/08/26 12:36:03;;;;;;;9.90;5.60;;;19.40;99.90;;;;;;5009271;28;20178;-81
2021/08/26 12:42:05;;;;;;;6.00;4.67;;;19.40;99.90;;;;;;4990959;28;20172;-82
2021/08/26 12:44:56;;;;;;;6.90;4.40;;;19.40;99.90;;;;;;5003307;28;20173;-81
2021/08/26 12:47:55;;;;;;;5.40;4.90;;;19.50;99.90;;;;;;4956234;28;20183;-81
2021/08/26 12:50:42;;;;;;;4.70;4.30;;;19.60;99.90;;;;;;4962184;28;20181;-81
2021/08/26 12:53:26;;;;;;;5.70;4.00;;;19.60;99.90;;;;;;4966341;28;20180;-83
2021/08/26 12:56:03;;;;;;;5.20;4.10;;;19.70;99.90;;;;;;4982121;28;20176;-81
2021/08/26 12:59:08;;;;;;;6.40;4.47;;;19.60;99.90;;;;;;4965097;28;20200;-82
2021/08/26 13:01:36;;;;;;;4.70;4.30;;;19.60;99.90;;;;;;4981432;28;20173;-82
2021/08/26 13:04:43;;;;;;;5.93;4.53;;;19.60;99.90;;;;;;4982719;28;20256;-82